createdAt,value
2023-04-27T00:00:37.979Z,29.47
2023-04-27T00:03:06.141Z,29.71
2023-04-27T00:05:36.279Z,29.66
2023-04-27T00:08:02.837Z,29.56
2023-04-27T00:10:29.158Z,29.78
2023-04-27T00:12:55.597Z,29.53
2023-04-27T00:15:21.899Z,29.57
2023-04-27T00:17:48.402Z,29.61
2023-04-27T00:20:14.829Z,29.49
2023-04-27T00:22:41.463Z,29.83
2023-04-27T00:25:07.974Z,29.70
2023-04-27T00:27:34.300Z,29.47
2023-04-27T00:30:00.812Z,29.79
2023-04-27T00:32:27.185Z,29.52
2023-04-27T00:34:53.536Z,29.75
2023-04-27T00:37:19.895Z,29.77
2023-04-27T00:39:46.210Z,29.76
2023-04-27T00:42:15.308Z,29.67
2023-04-27T00:44:41.648Z,29.46
2023-04-27T00:47:07.976Z,29.71
2023-04-27T00:49:34.287Z,29.74
2023-04-27T00:52:00.676Z,29.69
2023-04-27T00:54:26.991Z,29.59
2023-04-27T00:56:53.315Z,29.58
2023-04-27T00:59:19.672Z,29.35
2023-04-27T01:01:46.133Z,29.55
2023-04-27T01:04:12.696Z,29.42
2023-04-27T01:06:39.294Z,29.29
2023-04-27T01:09:06.191Z,29.44
2023-04-27T01:11:32.644Z,29.47
2023-04-27T01:13:58.988Z,29.64
2023-04-27T01:16:25.439Z,29.52
2023-04-27T01:18:52.035Z,29.70
2023-04-27T01:21:18.852Z,29.40
2023-04-27T01:23:45.453Z,29.67
2023-04-27T01:26:13.801Z,29.51
2023-04-27T01:28:40.210Z,29.44
2023-04-27T01:31:06.589Z,29.61
2023-04-27T01:33:32.919Z,29.56
2023-04-27T01:35:59.444Z,29.54
2023-04-27T01:38:25.891Z,29.38
2023-04-27T01:40:52.249Z,29.34
2023-04-27T01:43:18.554Z,29.57
2023-04-27T01:45:49.423Z,29.54
2023-04-27T01:48:16.429Z,29.45
2023-04-27T01:50:42.796Z,29.20
2023-04-27T01:53:09.124Z,29.40
2023-04-27T01:55:35.741Z,29.25
2023-04-27T01:58:02.069Z,29.62
2023-04-27T02:00:28.386Z,29.38
2023-04-27T02:02:57.391Z,29.51
2023-04-27T02:05:24.016Z,29.36
2023-04-27T02:07:50.462Z,29.28
2023-04-27T02:10:16.769Z,29.40
2023-04-27T02:12:43.098Z,29.44
2023-04-27T02:15:09.666Z,29.30
2023-04-27T02:17:36.047Z,29.48
2023-04-27T02:20:02.460Z,29.54
2023-04-27T02:22:28.776Z,29.55
2023-04-27T02:24:55.100Z,29.62
2023-04-27T02:27:21.450Z,29.69
2023-04-27T02:29:48.164Z,29.75
2023-04-27T02:32:14.954Z,29.64
2023-04-27T02:34:41.825Z,29.57
2023-04-27T02:37:08.159Z,29.65
2023-04-27T02:39:34.472Z,29.57
2023-04-27T02:42:01.441Z,29.49
2023-04-27T02:44:27.836Z,29.49
2023-04-27T02:46:54.639Z,29.58
2023-04-27T02:49:21.028Z,29.59
2023-04-27T02:51:47.455Z,29.50
2023-04-27T02:54:14.007Z,29.65
2023-04-27T02:56:40.361Z,29.46
2023-04-27T02:59:07.521Z,29.98
2023-04-27T03:01:33.912Z,29.66
2023-04-27T03:04:00.519Z,29.69
2023-04-27T03:06:30.331Z,29.70
2023-04-27T03:08:56.643Z,29.83
2023-04-27T03:11:22.971Z,29.96
2023-04-27T03:13:49.663Z,29.84
2023-04-27T03:16:16.227Z,29.95
2023-04-27T03:18:42.597Z,29.94
2023-04-27T03:21:09.321Z,30.16
2023-04-27T03:23:35.880Z,30.07
2023-04-27T03:26:11.529Z,29.95
2023-04-27T03:28:38.210Z,30.09
2023-04-27T03:31:05.151Z,30.06
2023-04-27T03:33:31.473Z,30.20
2023-04-27T03:35:58.212Z,30.02
2023-04-27T03:38:24.811Z,30.14
2023-04-27T03:40:51.299Z,30.13
2023-04-27T03:43:17.883Z,30.12
2023-04-27T03:45:44.212Z,30.11
2023-04-27T03:48:10.584Z,30.04
2023-04-27T03:50:36.890Z,29.87
2023-04-27T03:53:03.234Z,30.08
2023-04-27T03:55:29.729Z,29.97
2023-04-27T03:57:56.062Z,30.01
2023-04-27T04:00:22.393Z,30.00
2023-04-27T04:02:48.924Z,30.03
2023-04-27T04:05:15.518Z,30.06
2023-04-27T04:07:41.903Z,29.97
2023-04-27T04:10:08.479Z,29.95
2023-04-27T04:12:34.916Z,30.05
2023-04-27T04:15:01.403Z,30.13
2023-04-27T04:17:27.976Z,30.05
2023-04-27T04:19:54.301Z,30.05
2023-04-27T04:22:20.631Z,30.27
2023-04-27T04:24:47.358Z,30.13
2023-04-27T04:27:13.918Z,30.14
2023-04-27T04:29:40.564Z,30.27
2023-04-27T04:32:09.364Z,30.14
2023-04-27T04:34:36.236Z,30.08
2023-04-27T04:37:02.607Z,30.16
2023-04-27T04:39:32.059Z,30.13
2023-04-27T04:41:58.419Z,29.98
2023-04-27T04:44:24.731Z,29.99
2023-04-27T04:46:51.287Z,29.94
2023-04-27T04:49:17.634Z,29.69
2023-04-27T04:51:44.128Z,29.52
2023-04-27T04:54:10.455Z,29.44
2023-04-27T04:56:36.786Z,29.60
2023-04-27T04:59:03.704Z,29.42
2023-04-27T05:01:30.082Z,29.54
2023-04-27T05:03:56.480Z,29.23
2023-04-27T05:06:22.973Z,29.35
2023-04-27T05:08:49.280Z,29.21
2023-04-27T05:11:15.592Z,29.30
2023-04-27T05:13:41.969Z,29.49
2023-04-27T05:16:08.349Z,29.17
2023-04-27T05:18:34.760Z,29.36
2023-04-27T05:21:01.087Z,29.40
2023-04-27T05:23:27.758Z,29.35
2023-04-27T05:25:54.071Z,29.03
2023-04-27T05:28:20.750Z,29.06
2023-04-27T05:35:39.888Z,28.95
2023-04-27T05:38:06.216Z,29.05
2023-04-27T05:40:32.541Z,28.99
2023-04-27T05:42:59.934Z,29.12
2023-04-27T05:45:26.234Z,29.25
2023-04-27T05:47:52.618Z,29.03
2023-04-27T05:50:19.008Z,28.97
2023-04-27T05:52:45.381Z,29.08
2023-04-27T05:55:11.758Z,28.95
2023-04-27T05:57:38.810Z,28.95
2023-04-27T06:00:10.304Z,28.99
2023-04-27T06:02:36.764Z,28.97
2023-04-27T06:05:03.798Z,28.89
2023-04-27T06:07:30.549Z,29.00
2023-04-27T06:09:56.859Z,28.83
2023-04-27T06:12:23.204Z,28.94
2023-04-27T06:14:49.540Z,29.00
2023-04-27T06:17:15.856Z,28.76
2023-04-27T06:19:42.201Z,28.77
2023-04-27T06:22:09.610Z,28.84
2023-04-27T06:24:36.507Z,28.87
2023-04-27T06:27:02.871Z,28.90
2023-04-27T06:29:29.206Z,28.67
2023-04-27T06:31:55.557Z,28.73
2023-04-27T06:34:21.913Z,28.79
2023-04-27T06:36:48.291Z,28.74
2023-04-27T06:39:15.049Z,28.53
2023-04-27T06:41:41.503Z,28.71
2023-04-27T06:44:07.837Z,28.56
2023-04-27T06:46:34.243Z,28.72
2023-04-27T06:49:01.559Z,28.67
2023-04-27T06:51:28.335Z,28.33
2023-04-27T06:53:57.150Z,28.39
2023-04-27T06:56:23.455Z,28.32
2023-04-27T06:58:49.761Z,28.30
2023-04-27T07:01:16.677Z,28.17
2023-04-27T07:03:43.275Z,28.36
2023-04-27T07:06:09.765Z,28.11
2023-04-27T07:08:36.837Z,27.88
2023-04-27T07:11:03.473Z,28.07
2023-04-27T07:13:29.864Z,27.85
2023-04-27T07:15:58.989Z,27.35
2023-04-27T07:18:27.964Z,27.49
2023-04-27T07:20:54.751Z,27.11
2023-04-27T07:23:21.069Z,27.12
2023-04-27T07:25:47.390Z,26.87
2023-04-27T07:28:13.769Z,27.28
2023-04-27T07:30:40.574Z,26.94
2023-04-27T07:33:07.204Z,26.55
2023-04-27T07:35:33.603Z,26.55
2023-04-27T07:38:01.604Z,26.24
2023-04-27T07:40:28.424Z,26.49
2023-04-27T07:42:55.170Z,26.30
2023-04-27T07:45:22.375Z,26.34
2023-04-27T07:47:48.940Z,26.10
2023-04-27T07:50:16.888Z,26.42
2023-04-27T07:52:43.217Z,26.46
2023-04-27T07:55:09.948Z,26.66
2023-04-27T07:57:36.397Z,26.66
2023-04-27T08:00:05.404Z,25.96
2023-04-27T08:02:32.295Z,25.83
2023-04-27T08:04:59.239Z,25.73
2023-04-27T08:07:26.147Z,25.73
2023-04-27T08:09:52.636Z,25.63
2023-04-27T08:12:19.423Z,25.60
2023-04-27T08:14:46.290Z,25.76
2023-04-27T08:17:12.658Z,25.48
2023-04-27T08:19:39.016Z,25.66
2023-04-27T08:22:05.335Z,25.38
2023-04-27T08:24:31.855Z,25.41
2023-04-27T08:26:58.154Z,25.98
2023-04-27T08:29:28.511Z,25.36
2023-04-27T08:31:57.162Z,24.84
2023-04-27T08:34:23.624Z,24.84
2023-04-27T08:36:50.010Z,25.09
2023-04-27T08:39:17.990Z,24.77
2023-04-27T08:41:44.593Z,24.64
2023-04-27T08:44:10.915Z,25.05
2023-04-27T08:46:37.452Z,24.62
2023-04-27T08:49:03.925Z,24.29
2023-04-27T08:51:31.897Z,24.43
2023-04-27T08:53:58.432Z,24.62
2023-04-27T08:56:25.554Z,24.57
2023-04-27T08:58:51.912Z,24.38
2023-04-27T09:01:18.546Z,24.25
2023-04-27T09:03:46.896Z,24.15
2023-04-27T09:06:13.710Z,24.29
2023-04-27T09:08:43.124Z,23.84
2023-04-27T09:11:09.435Z,24.12
2023-04-27T09:13:36.558Z,23.71
2023-04-27T09:16:02.884Z,23.85
2023-04-27T09:18:29.200Z,23.72
2023-04-27T09:20:55.540Z,23.75
2023-04-27T09:23:26.247Z,23.72
2023-04-27T09:25:52.973Z,23.61
2023-04-27T09:28:19.372Z,23.53
2023-04-27T09:30:51.548Z,23.40
2023-04-27T09:33:22.383Z,23.35
2023-04-27T09:35:48.799Z,23.23
2023-04-27T09:38:15.904Z,22.90
2023-04-27T09:40:43.284Z,23.06
2023-04-27T09:43:09.605Z,23.20
2023-04-27T09:45:36.163Z,23.50
2023-04-27T09:48:02.962Z,24.64
2023-04-27T09:50:29.312Z,25.01
2023-04-27T09:52:56.296Z,24.18
2023-04-27T09:55:27.161Z,24.28
2023-04-27T09:58:12.287Z,24.13
2023-04-27T10:00:42.993Z,23.71
2023-04-27T10:03:28.152Z,25.62
2023-04-27T10:06:04.815Z,32.36
2023-04-27T10:08:31.135Z,34.50
2023-04-27T10:10:57.446Z,28.50
2023-04-27T10:13:24.307Z,27.32
2023-04-27T10:15:51.275Z,26.48
2023-04-27T10:18:30.679Z,25.52
2023-04-27T10:20:57.263Z,25.24
2023-04-27T10:23:24.367Z,25.10
2023-04-27T10:25:50.696Z,25.04
2023-04-27T10:28:17.922Z,24.45
2023-04-27T10:30:46.106Z,24.38
2023-04-27T10:33:12.987Z,24.29
2023-04-27T10:35:39.980Z,23.92
2023-04-27T10:38:07.235Z,23.75
2023-04-27T10:40:34.132Z,23.85
2023-04-27T10:43:09.366Z,23.62
2023-04-27T10:45:35.858Z,23.92
2023-04-27T10:48:02.377Z,23.49
2023-04-27T10:50:28.909Z,23.55
2023-04-27T10:53:00.940Z,23.30
2023-04-27T10:55:27.404Z,23.25
2023-04-27T10:57:54.090Z,23.39
2023-04-27T11:00:27.246Z,23.09
2023-04-27T11:02:54.075Z,23.07
2023-04-27T11:05:21.436Z,22.97
2023-04-27T11:07:47.922Z,23.14
2023-04-27T11:10:18.005Z,23.18
2023-04-27T11:12:44.546Z,22.99
2023-04-27T11:15:11.626Z,23.18
2023-04-27T11:17:38.008Z,23.10
2023-04-27T11:20:10.728Z,22.78
2023-04-27T11:22:43.977Z,22.87
2023-04-27T11:25:10.284Z,22.94
2023-04-27T11:27:37.672Z,23.00
2023-04-27T11:30:04.235Z,22.98
2023-04-27T11:32:30.603Z,22.67
2023-04-27T11:34:59.112Z,22.66
2023-04-27T11:37:26.584Z,22.72
2023-04-27T11:39:54.546Z,22.79
2023-04-27T11:42:22.025Z,22.72
2023-04-27T11:45:06.032Z,22.72
2023-04-27T11:47:32.769Z,22.42
2023-04-27T11:50:02.694Z,22.91
2023-04-27T11:52:29.685Z,22.43
2023-04-27T11:54:56.678Z,22.48
2023-04-27T11:57:26.996Z,23.14
2023-04-27T11:59:53.395Z,23.42
2023-04-27T12:02:21.966Z,23.04
2023-04-27T12:04:49.176Z,22.43
2023-04-27T12:07:15.918Z,22.31
2023-04-27T12:09:42.278Z,22.23
2023-04-27T12:12:08.684Z,22.17
2023-04-27T12:14:35.011Z,22.18
2023-04-27T12:17:01.377Z,22.06
2023-04-27T12:19:27.943Z,21.81
2023-04-27T12:21:54.619Z,21.85
2023-04-27T12:24:21.900Z,22.37
2023-04-27T12:26:48.309Z,22.54
2023-04-27T12:29:14.768Z,22.32
2023-04-27T12:31:41.243Z,22.36
2023-04-27T12:34:07.617Z,22.49
2023-04-27T12:36:33.928Z,22.67
2023-04-27T12:39:01.621Z,22.53
2023-04-27T12:41:27.939Z,22.59
2023-04-27T12:43:54.285Z,22.49
2023-04-27T12:46:20.643Z,22.70
2023-04-27T12:48:47.048Z,22.53
2023-04-27T12:51:13.434Z,22.63
2023-04-27T12:53:39.786Z,22.71
2023-04-27T12:56:06.155Z,22.68
2023-04-27T12:58:32.566Z,22.63
2023-04-27T13:00:58.943Z,22.59
2023-04-27T13:03:25.554Z,22.61
2023-04-27T13:05:52.143Z,22.54
2023-04-27T13:08:18.474Z,22.48
2023-04-27T13:10:44.775Z,22.43
2023-04-27T13:13:11.490Z,22.32
2023-04-27T13:15:38.587Z,22.33
2023-04-27T13:18:06.504Z,22.41
2023-04-27T13:20:32.943Z,22.49
2023-04-27T13:22:59.269Z,22.36
2023-04-27T13:25:25.736Z,22.32
2023-04-27T13:27:52.058Z,22.23
2023-04-27T13:30:18.384Z,22.31
2023-04-27T13:32:45.008Z,22.49
2023-04-27T13:35:11.358Z,22.54
2023-04-27T13:37:37.853Z,22.39
2023-04-27T13:40:06.461Z,22.48
2023-04-27T13:42:32.765Z,22.31
2023-04-27T13:44:59.077Z,22.39
2023-04-27T13:47:25.751Z,22.26
2023-04-27T13:49:52.130Z,22.21
2023-04-27T13:52:18.548Z,22.28
2023-04-27T13:54:44.866Z,22.29
2023-04-27T13:57:11.296Z,22.28
2023-04-27T13:59:37.632Z,22.53
2023-04-27T14:02:03.940Z,22.35
2023-04-27T14:04:30.736Z,22.33
2023-04-27T14:06:57.183Z,22.41
2023-04-27T14:09:24.252Z,22.46
2023-04-27T14:11:56.578Z,22.42
2023-04-27T14:14:23.517Z,22.46
2023-04-27T14:16:51.235Z,22.26
2023-04-27T14:19:18.635Z,22.38
2023-04-27T14:21:44.956Z,22.44
2023-04-27T14:24:11.295Z,22.29
2023-04-27T14:26:37.624Z,22.46
2023-04-27T14:29:04.209Z,22.52
2023-04-27T14:31:30.822Z,22.43
2023-04-27T14:33:59.221Z,22.31
2023-04-27T14:36:25.577Z,22.49
2023-04-27T14:38:52.329Z,22.70
2023-04-27T14:41:18.646Z,22.64
2023-04-27T14:43:46.927Z,22.76
2023-04-27T14:48:46.224Z,22.42
2023-04-27T14:51:15.393Z,22.48
2023-04-27T14:53:41.717Z,22.54
2023-04-27T14:56:08.051Z,22.49
2023-04-27T14:58:34.421Z,22.44
2023-04-27T15:01:01.068Z,22.47
2023-04-27T15:03:27.893Z,22.69
2023-04-27T15:05:54.429Z,23.03
2023-04-27T15:08:21.080Z,22.95
2023-04-27T15:10:47.405Z,23.01
2023-04-27T15:13:13.741Z,23.12
2023-04-27T15:15:40.180Z,23.27
2023-04-27T15:18:06.617Z,23.44
2023-04-27T15:20:33.031Z,23.38
2023-04-27T15:22:59.617Z,23.57
2023-04-27T15:25:25.976Z,23.73
2023-04-27T15:27:52.306Z,23.89
2023-04-27T15:30:18.621Z,23.96
2023-04-27T15:32:44.974Z,24.04
2023-04-27T15:35:11.439Z,24.19
2023-04-27T15:37:37.754Z,24.51
2023-04-27T15:40:04.251Z,24.72
2023-04-27T15:42:30.683Z,24.78
2023-04-27T15:44:57.873Z,24.96
2023-04-27T15:47:24.471Z,25.08
2023-04-27T15:49:57.308Z,25.11
2023-04-27T15:52:24.445Z,25.31
2023-04-27T15:54:50.855Z,25.27
2023-04-27T15:57:18.247Z,25.22
2023-04-27T15:59:44.711Z,25.29
2023-04-27T16:02:11.149Z,25.44
2023-04-27T16:04:44.113Z,25.34
2023-04-27T16:07:11.037Z,25.31
2023-04-27T16:09:37.687Z,25.48
2023-04-27T16:12:04.086Z,25.35
2023-04-27T16:14:30.451Z,25.30
2023-04-27T16:17:01.388Z,25.39
2023-04-27T16:19:27.786Z,25.55
2023-04-27T16:21:54.106Z,25.52
2023-04-27T16:24:20.484Z,25.95
2023-04-27T16:26:46.838Z,26.21
2023-04-27T16:29:13.432Z,26.51
2023-04-27T16:31:40.970Z,26.71
2023-04-27T16:34:07.364Z,26.87
2023-04-27T16:36:34.048Z,26.73
2023-04-27T16:39:00.603Z,27.02
2023-04-27T16:41:26.951Z,26.97
2023-04-27T16:43:53.378Z,27.19
2023-04-27T16:46:19.760Z,27.18
2023-04-27T16:48:46.407Z,27.02
2023-04-27T16:51:12.809Z,27.24
2023-04-27T16:53:39.165Z,27.35
2023-04-27T16:56:05.703Z,27.05
2023-04-27T16:58:34.433Z,27.43
2023-04-27T17:01:01.533Z,27.60
2023-04-27T17:03:28.017Z,27.57
2023-04-27T17:05:54.655Z,27.46
2023-04-27T17:08:20.987Z,27.47
2023-04-27T17:10:47.307Z,27.57
2023-04-27T17:13:15.666Z,27.39
2023-04-27T17:15:42.048Z,27.60
2023-04-27T17:18:09.765Z,27.44
2023-04-27T17:20:36.181Z,27.55
2023-04-27T17:23:02.544Z,27.48
2023-04-27T17:25:28.913Z,27.63
2023-04-27T17:27:55.328Z,27.54
2023-04-27T17:30:21.648Z,27.53
2023-04-27T17:32:48.041Z,27.48
2023-04-27T17:35:14.395Z,27.68
2023-04-27T17:37:40.718Z,27.84
2023-04-27T17:40:10.296Z,27.58
2023-04-27T17:42:36.624Z,27.75
2023-04-27T17:45:03.127Z,27.68
2023-04-27T17:47:29.516Z,27.89
2023-04-27T17:49:55.885Z,27.88
2023-04-27T17:52:22.403Z,27.82
2023-04-27T17:54:48.731Z,27.82
2023-04-27T17:57:17.157Z,27.80
2023-04-27T17:59:43.517Z,27.95
2023-04-27T18:02:09.853Z,27.80
2023-04-27T18:04:36.635Z,28.14
2023-04-27T18:07:04.394Z,28.10
2023-04-27T18:09:35.221Z,28.24
2023-04-27T18:12:02.253Z,28.09
2023-04-27T18:14:30.239Z,28.20
2023-04-27T18:16:59.308Z,27.95
2023-04-27T18:19:27.371Z,27.67
2023-04-27T18:21:58.247Z,27.26
2023-04-27T18:24:25.975Z,26.86
2023-04-27T18:26:55.435Z,26.94
2023-04-27T18:29:26.717Z,26.88
2023-04-27T18:31:54.616Z,26.56
2023-04-27T18:34:20.947Z,26.84
2023-04-27T18:36:51.872Z,26.79
2023-04-27T18:39:18.809Z,26.81
2023-04-27T18:41:45.143Z,26.67
2023-04-27T18:44:12.590Z,26.53
2023-04-27T18:46:40.005Z,26.74
2023-04-27T18:49:07.988Z,26.89
2023-04-27T18:51:34.644Z,26.75
2023-04-27T18:54:03.051Z,26.41
2023-04-27T18:56:30.788Z,26.66
2023-04-27T18:59:01.094Z,26.50
2023-04-27T19:01:28.386Z,26.38
2023-04-27T19:03:55.362Z,26.77
2023-04-27T19:06:24.100Z,26.28
2023-04-27T19:08:50.462Z,26.55
2023-04-27T19:11:19.539Z,26.74
2023-04-27T19:13:46.406Z,26.63
2023-04-27T19:16:15.979Z,26.91
2023-04-27T19:18:44.496Z,26.63
2023-04-27T19:21:10.916Z,26.71
2023-04-27T19:23:41.212Z,26.58
2023-04-27T19:26:13.088Z,27.32
2023-04-27T19:28:41.452Z,26.69
2023-04-27T19:31:08.437Z,26.56
2023-04-27T19:33:46.802Z,26.33
2023-04-27T19:36:13.876Z,26.33
2023-04-27T19:38:40.208Z,26.46
2023-04-27T19:41:07.357Z,26.57
2023-04-27T19:43:36.030Z,26.15
2023-04-27T19:46:02.618Z,26.08
2023-04-27T19:48:30.257Z,26.02
2023-04-27T19:50:59.810Z,25.99
2023-04-27T19:53:29.992Z,26.31
2023-04-27T19:55:59.445Z,25.99
2023-04-27T19:58:28.496Z,26.31
2023-04-27T20:00:55.015Z,26.18
2023-04-27T20:03:24.122Z,26.15
2023-04-27T20:06:03.908Z,26.42
2023-04-27T20:08:31.947Z,25.98
2023-04-27T20:10:58.294Z,26.42
2023-04-27T20:13:25.163Z,26.27
2023-04-27T20:15:52.214Z,26.83
2023-04-27T20:18:19.321Z,26.62
2023-04-27T20:20:46.133Z,26.85
2023-04-27T20:23:15.014Z,26.85
2023-04-27T20:25:42.755Z,26.76
2023-04-27T20:28:09.818Z,26.82
2023-04-27T20:30:37.922Z,26.64
2023-04-27T20:33:04.605Z,26.53
2023-04-27T20:35:31.504Z,26.71
2023-04-27T20:37:57.857Z,26.68
2023-04-27T20:40:27.097Z,26.61
2023-04-27T20:42:53.464Z,26.67
2023-04-27T20:45:20.117Z,26.85
2023-04-27T20:47:46.890Z,26.55
2023-04-27T20:50:13.487Z,26.72
2023-04-27T20:52:44.352Z,26.61
2023-04-27T20:55:14.456Z,26.53
2023-04-27T20:57:41.935Z,26.51
2023-04-27T21:00:11.801Z,26.61
2023-04-27T21:02:38.616Z,26.38
2023-04-27T21:05:05.725Z,26.70
2023-04-27T21:07:33.530Z,26.48
2023-04-27T21:10:05.899Z,26.41
2023-04-27T21:12:33.759Z,26.21
2023-04-27T21:15:03.296Z,26.32
2023-04-27T21:17:31.980Z,26.09
2023-04-27T21:20:01.067Z,26.65
2023-04-27T21:22:27.425Z,27.04
2023-04-27T21:24:55.386Z,26.82
2023-04-27T21:27:25.075Z,26.69
2023-04-27T21:29:51.661Z,26.71
2023-04-27T21:32:17.992Z,26.61
2023-04-27T21:34:45.927Z,26.99
2023-04-27T21:37:13.943Z,26.89
2023-04-27T21:39:40.420Z,26.64
2023-04-27T21:42:06.749Z,26.68
2023-04-27T21:44:35.202Z,26.75
2023-04-27T21:47:01.779Z,26.79
2023-04-27T21:49:30.517Z,26.71
2023-04-27T21:51:56.844Z,26.86
2023-04-27T21:54:26.467Z,26.79
2023-04-27T22:00:16.987Z,27.04
2023-04-27T22:02:44.607Z,27.12
2023-04-27T22:05:11.048Z,26.91
2023-04-27T22:07:37.433Z,26.97
2023-04-27T22:10:04.284Z,26.96
2023-04-27T22:12:32.409Z,27.28
2023-04-27T22:15:00.163Z,26.91
2023-04-27T22:17:27.623Z,27.16
2023-04-27T22:19:54.674Z,27.20
2023-04-27T22:22:22.849Z,27.14
2023-04-27T22:24:52.336Z,26.92
2023-04-27T22:27:19.644Z,27.15
2023-04-27T22:29:47.099Z,27.20
2023-04-27T22:32:15.785Z,27.22
2023-04-27T22:34:45.969Z,27.14
2023-04-27T22:37:12.603Z,27.21
2023-04-27T22:39:38.916Z,27.07
2023-04-27T22:42:06.507Z,27.01
2023-04-27T22:44:32.823Z,27.04
2023-04-27T22:47:00.933Z,27.08
2023-04-27T22:49:29.645Z,27.32
2023-04-27T22:51:58.466Z,27.27
2023-04-27T22:54:26.324Z,27.38
2023-04-27T22:57:01.275Z,27.16
2023-04-27T22:59:28.240Z,27.15
2023-04-27T23:01:54.845Z,27.32
2023-04-27T23:04:22.267Z,27.34
2023-04-27T23:06:49.429Z,27.24
2023-04-27T23:09:16.867Z,27.29
2023-04-27T23:11:43.202Z,27.42
2023-04-27T23:14:10.774Z,27.38
2023-04-27T23:16:38.023Z,27.33
2023-04-27T23:19:04.777Z,27.43
2023-04-27T23:21:31.900Z,27.21
2023-04-27T23:24:01.280Z,27.43
2023-04-27T23:26:27.882Z,27.38
2023-04-27T23:28:54.671Z,27.39
2023-04-27T23:31:22.768Z,27.51
2023-04-27T23:33:50.534Z,27.33
2023-04-27T23:36:16.911Z,27.46
2023-04-27T23:38:43.461Z,27.23
2023-04-27T23:41:10.156Z,27.31
2023-04-27T23:43:39.610Z,27.39
2023-04-27T23:46:09.625Z,27.47
2023-04-27T23:48:36.520Z,27.36
2023-04-27T23:51:05.971Z,27.37
2023-04-27T23:53:33.065Z,27.27
2023-04-27T23:55:59.671Z,27.61
2023-04-27T23:58:26.140Z,27.25
